createdAt,value
2019-03-21T00:00:35.553Z,1.30
2019-03-21T00:03:05.173Z,1.30
2019-03-21T00:05:36.549Z,1.00
2019-03-21T00:08:07.861Z,0.90
2019-03-21T00:11:13.932Z,0.90
2019-03-21T00:13:43.544Z,1.00
2019-03-21T00:16:13.646Z,0.90
2019-03-21T00:18:43.334Z,0.90
2019-03-21T00:21:12.658Z,1.00
2019-03-21T00:23:41.979Z,1.00
2019-03-21T00:26:11.463Z,1.00
2019-03-21T00:28:40.851Z,1.10
2019-03-21T00:31:10.179Z,1.10
2019-03-21T00:33:39.685Z,1.10
2019-03-21T00:36:09.198Z,1.10
2019-03-21T00:38:38.726Z,1.00
2019-03-21T00:41:08.465Z,1.00
2019-03-21T00:43:37.913Z,0.80
2019-03-21T00:46:07.312Z,0.50
2019-03-21T00:48:36.758Z,0.70
2019-03-21T00:51:06.872Z,0.70
2019-03-21T00:53:36.383Z,0.50
2019-03-21T00:56:06.000Z,0.50
2019-03-21T00:58:35.558Z,0.50
2019-03-21T01:01:05.175Z,0.50
2019-03-21T01:03:34.693Z,0.30
2019-03-21T01:06:05.036Z,0.30
2019-03-21T01:08:35.268Z,0.20
2019-03-21T01:11:04.629Z,0.20
2019-03-21T01:13:35.059Z,0.20
2019-03-21T01:16:04.473Z,0.30
2019-03-21T01:18:34.362Z,0.30
2019-03-21T01:21:06.043Z,0.20
2019-03-21T01:23:34.935Z,0.20
2019-03-21T01:26:04.772Z,0.20
2019-03-21T01:28:34.274Z,0.20
2019-03-21T01:31:03.636Z,0.30
2019-03-21T01:33:33.397Z,0.20
2019-03-21T01:36:02.866Z,0.40
2019-03-21T01:38:32.288Z,0.40
2019-03-21T01:41:02.178Z,0.50
2019-03-21T01:43:32.756Z,0.40
2019-03-21T01:46:02.284Z,0.50
2019-03-21T01:48:31.729Z,0.50
2019-03-21T01:51:01.147Z,0.60
2019-03-21T01:53:30.499Z,0.50
2019-03-21T01:55:59.905Z,0.60
2019-03-21T01:58:29.422Z,0.60
2019-03-21T02:00:59.286Z,0.60
2019-03-21T02:03:28.752Z,0.60
2019-03-21T02:05:58.264Z,0.50
2019-03-21T02:08:27.741Z,0.30
2019-03-21T02:10:57.234Z,0.40
2019-03-21T02:13:26.722Z,0.10
2019-03-21T02:15:56.041Z,0.10
2019-03-21T02:18:25.391Z,0.00
2019-03-21T02:20:54.835Z,0.00
2019-03-21T02:23:24.520Z,0.00
2019-03-21T02:25:53.978Z,0.00
2019-03-21T02:28:23.324Z,0.00
2019-03-21T02:30:52.768Z,0.00
2019-03-21T02:33:27.852Z,0.00
2019-03-21T02:35:57.294Z,0.00
2019-03-21T02:38:26.608Z,0.00
2019-03-21T02:40:56.133Z,0.00
2019-03-21T02:43:25.455Z,-0.10
2019-03-21T02:45:54.950Z,0.10
2019-03-21T02:48:24.671Z,-0.10
2019-03-21T02:50:54.194Z,-0.20
2019-03-21T02:53:23.569Z,-0.20
2019-03-21T02:55:52.903Z,-0.30
2019-03-21T02:58:22.325Z,-0.20
2019-03-21T03:00:52.178Z,0.00
2019-03-21T03:03:21.647Z,0.00
2019-03-21T03:05:52.081Z,-0.10
2019-03-21T03:08:21.586Z,-0.10
2019-03-21T03:10:52.347Z,-0.10
2019-03-21T03:13:21.875Z,-0.20
2019-03-21T03:15:51.314Z,-0.10
2019-03-21T03:18:20.719Z,-0.20
2019-03-21T03:20:50.193Z,-0.20
2019-03-21T03:23:19.646Z,-0.20
2019-03-21T03:25:50.817Z,-0.30
2019-03-21T03:28:22.365Z,-0.30
2019-03-21T03:30:52.754Z,-0.50
2019-03-21T03:33:22.148Z,-0.30
2019-03-21T03:35:51.670Z,-0.30
2019-03-21T03:38:21.134Z,-0.50
2019-03-21T03:40:53.489Z,-0.40
2019-03-21T03:43:22.908Z,-0.30
2019-03-21T03:45:52.353Z,-0.30
2019-03-21T03:48:21.827Z,-0.30
2019-03-21T03:50:51.382Z,-0.40
2019-03-21T03:53:20.776Z,-0.50
2019-03-21T03:55:50.109Z,0.80
2019-03-21T03:58:20.290Z,-0.50
2019-03-21T04:00:49.797Z,-0.60
2019-03-21T04:03:19.458Z,-0.60
2019-03-21T04:05:48.972Z,-0.50
2019-03-21T04:08:18.893Z,-0.50
2019-03-21T04:10:48.387Z,-0.50
2019-03-21T04:13:17.789Z,-0.50
2019-03-21T04:15:52.945Z,-0.40
2019-03-21T04:18:18.774Z,-0.40
2019-03-21T04:20:48.529Z,-0.50
2019-03-21T04:23:18.770Z,-0.60
2019-03-21T04:25:54.326Z,-0.50
2019-03-21T04:28:23.819Z,-0.70
2019-03-21T04:30:53.266Z,-0.60
2019-03-21T04:33:23.186Z,-0.60
2019-03-21T04:35:52.767Z,-0.70
2019-03-21T04:38:22.497Z,-0.80
2019-03-21T04:40:51.949Z,-0.90
2019-03-21T04:43:21.686Z,-0.90
2019-03-21T04:46:02.423Z,-0.90
2019-03-21T04:48:22.241Z,-0.90
2019-03-21T04:50:51.759Z,-0.80
2019-03-21T04:53:21.219Z,-0.90
2019-03-21T04:55:50.671Z,-0.80
2019-03-21T04:58:20.062Z,-0.80
2019-03-21T05:00:49.667Z,-0.90
2019-03-21T05:03:19.096Z,-0.90
2019-03-21T05:05:48.520Z,-0.90
2019-03-21T05:08:17.934Z,-0.90
2019-03-21T05:10:47.507Z,-1.00
2019-03-21T05:13:16.951Z,-1.00
2019-03-21T05:15:46.334Z,-1.00
2019-03-21T05:18:18.782Z,-1.10
2019-03-21T05:20:48.274Z,-1.00
2019-03-21T05:23:17.650Z,-1.20
2019-03-21T05:25:47.052Z,-1.10
2019-03-21T05:28:16.462Z,-1.10
2019-03-21T05:30:52.230Z,-1.10
2019-03-21T05:33:21.549Z,-1.10
2019-03-21T05:35:51.003Z,-1.10
2019-03-21T05:38:20.623Z,-1.00
2019-03-21T05:40:50.046Z,-1.10
2019-03-21T05:43:22.925Z,-1.00
2019-03-21T05:45:52.353Z,-1.00
2019-03-21T05:48:21.834Z,-1.00
2019-03-21T05:50:51.316Z,-1.10
2019-03-21T05:53:20.742Z,-1.00
2019-03-21T05:55:50.649Z,-0.80
2019-03-21T05:58:20.087Z,-1.00
2019-03-21T06:00:51.393Z,-0.70
2019-03-21T06:03:23.946Z,-0.70
2019-03-21T06:06:09.878Z,-0.50
2019-03-21T06:08:39.769Z,-0.50
2019-03-21T06:11:09.403Z,-0.50
2019-03-21T06:13:38.800Z,-0.40
2019-03-21T06:16:09.338Z,0.10
2019-03-21T06:18:58.483Z,1.00
2019-03-21T06:22:13.541Z,1.80
2019-03-21T06:24:55.800Z,2.30
2019-03-21T06:27:33.305Z,3.20
2019-03-21T06:30:02.837Z,4.10
2019-03-21T06:32:32.245Z,4.60
2019-03-21T06:35:01.626Z,5.30
2019-03-21T06:37:30.992Z,6.20
2019-03-21T06:40:00.666Z,7.20
2019-03-21T06:42:30.121Z,7.80
2019-03-21T06:44:59.538Z,8.20
2019-03-21T06:47:28.943Z,8.00
2019-03-21T06:49:58.320Z,8.60
2019-03-21T06:52:27.773Z,9.10
2019-03-21T06:54:59.686Z,8.90
2019-03-21T06:57:28.216Z,8.80
2019-03-21T06:59:57.775Z,9.00
2019-03-21T07:02:27.134Z,9.30
2019-03-21T07:04:56.632Z,9.10
2019-03-21T07:07:26.123Z,9.00
2019-03-21T07:09:55.541Z,9.30
2019-03-21T07:12:25.163Z,10.60
2019-03-21T07:14:54.593Z,11.40
2019-03-21T07:17:23.986Z,11.80
2019-03-21T07:19:53.329Z,11.80
2019-03-21T07:22:22.862Z,11.90
2019-03-21T07:24:52.318Z,11.60
2019-03-21T07:27:21.728Z,11.50
2019-03-21T07:29:51.044Z,11.90
2019-03-21T07:32:20.386Z,12.00
2019-03-21T07:34:49.864Z,12.30
2019-03-21T07:37:19.290Z,12.20
2019-03-21T07:39:48.794Z,11.90
2019-03-21T07:42:18.415Z,11.50
2019-03-21T07:44:48.025Z,11.90
2019-03-21T07:47:17.453Z,12.10
2019-03-21T07:49:46.780Z,12.60
2019-03-21T07:52:16.251Z,12.90
2019-03-21T07:54:45.738Z,13.30
2019-03-21T07:57:15.159Z,12.90
2019-03-21T07:59:44.529Z,13.50
2019-03-21T08:02:14.023Z,13.40
2019-03-21T08:04:43.458Z,12.80
2019-03-21T08:07:12.945Z,12.60
2019-03-21T08:09:42.396Z,12.80
2019-03-21T08:12:11.877Z,12.80
2019-03-21T08:14:41.213Z,12.70
2019-03-21T08:17:10.728Z,12.80
2019-03-21T08:19:40.166Z,12.20
2019-03-21T08:22:09.685Z,11.60
2019-03-21T08:24:39.377Z,11.40
2019-03-21T08:27:08.878Z,10.90
2019-03-21T08:29:38.296Z,10.50
2019-03-21T08:32:07.738Z,10.40
2019-03-21T08:34:37.081Z,10.60
2019-03-21T08:37:06.500Z,10.80
2019-03-21T08:39:35.905Z,10.70
2019-03-21T08:42:05.320Z,10.90
2019-03-21T08:44:34.771Z,11.10
2019-03-21T08:47:04.222Z,11.20
2019-03-21T08:49:33.770Z,11.50
2019-03-21T08:52:03.226Z,11.60
2019-03-21T08:54:34.976Z,11.50
2019-03-21T08:57:03.865Z,11.60
2019-03-21T08:59:33.335Z,11.60
2019-03-21T09:02:02.789Z,11.70
2019-03-21T09:04:32.229Z,12.10
2019-03-21T09:07:12.029Z,12.30
2019-03-21T09:09:41.384Z,12.40
2019-03-21T09:12:12.071Z,12.20
2019-03-21T09:14:41.502Z,12.10
2019-03-21T09:17:10.922Z,11.90
2019-03-21T09:19:40.368Z,12.10
2019-03-21T09:22:09.858Z,12.50
2019-03-21T09:24:39.233Z,12.60
2019-03-21T09:27:08.551Z,12.50
2019-03-21T09:29:37.881Z,12.70
2019-03-21T09:32:07.249Z,12.60
2019-03-21T09:34:36.698Z,13.30
2019-03-21T09:37:06.210Z,13.20
2019-03-21T09:39:35.990Z,13.00
2019-03-21T09:42:05.408Z,12.80
2019-03-21T09:44:34.823Z,12.80
2019-03-21T09:47:04.324Z,12.80
2019-03-21T09:49:33.730Z,12.80
2019-03-21T09:52:03.186Z,13.00
2019-03-21T09:54:32.493Z,13.50
2019-03-21T09:57:01.968Z,13.80
2019-03-21T09:59:31.463Z,13.50
2019-03-21T10:02:00.894Z,15.00
2019-03-21T10:04:30.278Z,14.10
2019-03-21T10:06:59.653Z,14.30
2019-03-21T10:09:29.347Z,14.20
2019-03-21T10:11:58.729Z,14.10
2019-03-21T10:14:28.164Z,13.90
2019-03-21T10:16:57.998Z,14.10
2019-03-21T10:19:27.759Z,13.90
2019-03-21T10:21:57.178Z,13.70
2019-03-21T10:24:26.706Z,13.80
2019-03-21T10:26:56.148Z,13.80
2019-03-21T10:29:25.630Z,13.80
2019-03-21T10:31:54.957Z,13.90
2019-03-21T10:34:24.302Z,14.10
2019-03-21T10:36:53.716Z,14.10
2019-03-21T10:39:23.118Z,14.00
2019-03-21T10:41:52.749Z,14.30
2019-03-21T10:44:22.939Z,14.60
2019-03-21T10:46:52.497Z,14.80
2019-03-21T10:49:21.925Z,15.00
2019-03-21T10:51:55.293Z,14.90
2019-03-21T10:54:23.664Z,14.70
2019-03-21T10:56:53.415Z,15.10
2019-03-21T10:59:22.803Z,15.00
2019-03-21T11:01:52.314Z,15.10
2019-03-21T11:04:21.742Z,15.00
2019-03-21T11:07:00.354Z,15.10
2019-03-21T11:09:30.394Z,13.50
2019-03-21T11:12:00.001Z,15.00
2019-03-21T11:14:29.478Z,14.90
2019-03-21T11:16:58.794Z,14.90
2019-03-21T11:19:28.208Z,15.10
2019-03-21T11:22:05.747Z,15.10
2019-03-21T11:24:28.967Z,15.10
2019-03-21T11:26:58.409Z,15.40
2019-03-21T11:29:27.753Z,15.50
2019-03-21T11:31:57.114Z,15.10
2019-03-21T11:34:26.460Z,14.90
2019-03-21T11:36:55.964Z,15.00
2019-03-21T11:39:25.300Z,15.20
2019-03-21T11:41:54.617Z,15.10
2019-03-21T11:44:24.152Z,15.00
2019-03-21T11:46:53.525Z,14.90
2019-03-21T11:49:23.011Z,15.20
2019-03-21T11:51:52.351Z,15.60
2019-03-21T11:54:21.732Z,15.50
2019-03-21T11:56:51.166Z,15.40
2019-03-21T11:59:20.467Z,15.20
2019-03-21T12:01:50.289Z,15.40
2019-03-21T12:04:19.590Z,15.30
2019-03-21T12:06:48.962Z,15.60
2019-03-21T12:09:18.383Z,15.70
2019-03-21T12:11:47.838Z,15.80
2019-03-21T12:14:17.558Z,16.00
2019-03-21T12:16:46.902Z,16.10
2019-03-21T12:19:16.344Z,15.90
2019-03-21T12:21:45.689Z,15.90
2019-03-21T12:24:15.194Z,16.40
2019-03-21T12:26:44.961Z,16.60
2019-03-21T12:29:14.684Z,16.60
2019-03-21T12:31:44.089Z,16.40
2019-03-21T12:34:13.574Z,16.10
2019-03-21T12:36:42.913Z,15.80
2019-03-21T12:39:12.297Z,15.90
2019-03-21T12:41:41.820Z,16.00
2019-03-21T12:44:11.215Z,16.30
2019-03-21T12:46:40.535Z,16.30
2019-03-21T12:49:09.958Z,16.40
2019-03-21T12:51:39.439Z,16.50
2019-03-21T12:54:09.021Z,16.40
2019-03-21T12:56:38.361Z,16.50
2019-03-21T12:59:07.856Z,16.60
2019-03-21T13:01:37.221Z,16.60
2019-03-21T13:04:06.781Z,16.40
2019-03-21T13:06:36.099Z,16.20
2019-03-21T13:09:07.757Z,16.30
2019-03-21T13:11:37.099Z,16.60
2019-03-21T13:14:06.609Z,16.60
2019-03-21T13:16:36.042Z,16.70
2019-03-21T13:19:05.517Z,16.80
2019-03-21T13:21:34.903Z,17.20
2019-03-21T13:24:04.445Z,17.10
2019-03-21T13:26:33.811Z,17.20
2019-03-21T13:29:03.212Z,17.40
2019-03-21T13:31:32.715Z,18.00
2019-03-21T13:34:02.106Z,18.50
2019-03-21T13:36:31.808Z,17.90
2019-03-21T13:39:01.202Z,18.00
2019-03-21T13:41:30.764Z,18.60
2019-03-21T13:44:00.294Z,18.40
2019-03-21T13:46:29.778Z,18.40
2019-03-21T13:48:59.139Z,18.20
2019-03-21T13:51:28.470Z,18.50
2019-03-21T13:53:58.161Z,18.50
2019-03-21T13:56:37.753Z,18.80
2019-03-21T13:58:59.062Z,18.90
2019-03-21T14:01:28.569Z,18.40
2019-03-21T14:03:58.142Z,18.40
2019-03-21T14:06:27.625Z,18.70
2019-03-21T14:08:57.146Z,19.50
2019-03-21T14:11:26.564Z,19.70
2019-03-21T14:13:56.260Z,19.50
2019-03-21T14:16:25.877Z,19.60
2019-03-21T14:18:55.385Z,20.60
2019-03-21T14:21:25.839Z,20.90
2019-03-21T14:23:55.275Z,21.00
2019-03-21T14:26:24.671Z,21.50
2019-03-21T14:28:54.210Z,21.50
2019-03-21T14:31:23.802Z,21.60
2019-03-21T14:33:53.373Z,21.90
2019-03-21T14:36:22.869Z,21.90
2019-03-21T14:38:52.296Z,22.40
2019-03-21T14:41:21.737Z,23.90
2019-03-21T14:43:51.169Z,23.80
2019-03-21T14:46:20.653Z,22.40
2019-03-21T14:48:50.041Z,21.00
2019-03-21T14:51:19.560Z,20.00
2019-03-21T14:53:49.049Z,20.00
2019-03-21T14:56:18.582Z,19.70
2019-03-21T14:58:47.960Z,20.70
2019-03-21T15:01:17.461Z,21.90
2019-03-21T15:03:46.994Z,22.50
2019-03-21T15:06:16.498Z,22.50
2019-03-21T15:08:46.007Z,21.60
2019-03-21T15:11:17.265Z,20.70
2019-03-21T15:13:46.664Z,21.80
2019-03-21T15:16:16.016Z,22.70
2019-03-21T15:18:45.518Z,22.80
2019-03-21T15:21:15.123Z,21.70
2019-03-21T15:23:44.647Z,21.40
2019-03-21T15:26:14.112Z,21.40
2019-03-21T15:28:43.475Z,22.20
2019-03-21T15:31:12.857Z,21.60
2019-03-21T15:33:42.289Z,22.50
2019-03-21T15:36:11.798Z,22.00
2019-03-21T15:38:41.220Z,21.50
2019-03-21T15:41:10.653Z,21.50
2019-03-21T15:43:40.193Z,22.00
2019-03-21T15:46:09.497Z,21.50
2019-03-21T15:48:39.037Z,21.00
2019-03-21T15:51:08.434Z,21.50
2019-03-21T15:53:37.803Z,21.00
2019-03-21T15:56:07.310Z,19.80
2019-03-21T15:58:36.711Z,19.30
2019-03-21T16:01:06.374Z,19.80
2019-03-21T16:03:35.865Z,20.10
2019-03-21T16:06:05.357Z,20.50
2019-03-21T16:08:34.846Z,21.50
2019-03-21T16:11:04.343Z,21.30
2019-03-21T16:13:33.793Z,19.80
2019-03-21T16:16:03.269Z,19.70
2019-03-21T16:18:32.598Z,20.20
2019-03-21T16:21:02.079Z,20.20
2019-03-21T16:23:31.547Z,20.50
2019-03-21T16:26:00.939Z,21.10
2019-03-21T16:28:30.457Z,21.40
2019-03-21T16:30:59.995Z,22.20
2019-03-21T16:33:29.397Z,22.00
2019-03-21T16:35:58.933Z,22.20
2019-03-21T16:38:28.286Z,21.70
2019-03-21T16:40:57.626Z,20.60
2019-03-21T16:43:26.988Z,20.60
2019-03-21T16:45:56.339Z,19.00
2019-03-21T16:48:25.691Z,18.40
2019-03-21T16:50:55.123Z,17.80
2019-03-21T16:53:24.496Z,17.90
2019-03-21T16:55:53.854Z,17.70
2019-03-21T16:58:23.393Z,17.70
2019-03-21T17:00:52.814Z,16.60
2019-03-21T17:03:22.333Z,15.30
2019-03-21T17:05:51.811Z,14.50
2019-03-21T17:08:21.281Z,14.20
2019-03-21T17:10:50.895Z,14.00
2019-03-21T17:13:20.428Z,14.00
2019-03-21T17:15:50.122Z,13.80
2019-03-21T17:18:19.525Z,13.60
2019-03-21T17:20:48.945Z,13.60
2019-03-21T17:23:18.483Z,13.50
2019-03-21T17:25:48.188Z,13.30
2019-03-21T17:28:17.715Z,13.20
2019-03-21T17:30:47.229Z,13.10
2019-03-21T17:33:16.750Z,13.00
2019-03-21T17:35:46.173Z,12.90
2019-03-21T17:38:15.593Z,12.80
2019-03-21T17:40:45.004Z,12.80
2019-03-21T17:43:14.444Z,12.60
2019-03-21T17:45:43.918Z,12.50
2019-03-21T17:48:13.336Z,12.40
2019-03-21T17:50:42.805Z,12.40
2019-03-21T17:53:12.222Z,12.20
2019-03-21T17:55:41.748Z,12.20
2019-03-21T17:58:11.225Z,12.10
2019-03-21T18:00:40.600Z,12.00
2019-03-21T18:03:10.030Z,11.90
2019-03-21T18:05:39.426Z,11.90
2019-03-21T18:08:08.872Z,11.90
2019-03-21T18:10:38.459Z,11.80
2019-03-21T18:13:07.813Z,11.70
2019-03-21T18:15:37.212Z,11.60
2019-03-21T18:18:07.390Z,11.50
2019-03-21T18:20:36.983Z,11.40
2019-03-21T18:23:06.423Z,8.60
2019-03-21T18:25:36.130Z,11.10
2019-03-21T18:28:08.608Z,11.00
2019-03-21T18:30:37.408Z,10.90
2019-03-21T18:33:06.940Z,10.80
2019-03-21T18:35:36.462Z,10.90
2019-03-21T18:38:05.901Z,10.80
2019-03-21T18:40:35.360Z,10.60
2019-03-21T18:43:04.906Z,10.70
2019-03-21T18:45:34.262Z,10.60
2019-03-21T18:48:03.633Z,10.60
2019-03-21T18:50:33.170Z,10.20
2019-03-21T18:53:02.697Z,10.00
2019-03-21T18:55:32.676Z,9.70
2019-03-21T18:58:02.276Z,9.40
2019-03-21T19:00:31.653Z,9.40
2019-03-21T19:03:01.091Z,9.30
2019-03-21T19:05:30.720Z,9.20
2019-03-21T19:08:00.804Z,9.00
2019-03-21T19:10:30.313Z,9.00
2019-03-21T19:12:59.835Z,8.90
2019-03-21T19:15:29.383Z,8.80
2019-03-21T19:17:58.965Z,8.90
2019-03-21T19:20:29.570Z,8.70
2019-03-21T19:22:59.245Z,8.90
2019-03-21T19:25:28.962Z,8.80
2019-03-21T19:27:58.928Z,8.80
2019-03-21T19:30:28.559Z,8.90
2019-03-21T19:32:58.099Z,9.00
2019-03-21T19:35:27.505Z,9.10
2019-03-21T19:37:57.053Z,8.90
2019-03-21T19:40:26.526Z,8.60
2019-03-21T19:42:56.356Z,8.20
2019-03-21T19:45:26.274Z,7.80
2019-03-21T19:47:55.718Z,7.50
2019-03-21T19:50:25.272Z,7.50
2019-03-21T19:52:54.771Z,7.40
2019-03-21T19:55:30.976Z,7.10
2019-03-21T19:57:55.700Z,6.80
2019-03-21T20:00:25.273Z,6.90
2019-03-21T20:02:54.821Z,7.00
2019-03-21T20:05:24.468Z,6.90
2019-03-21T20:07:54.085Z,6.90
2019-03-21T20:10:23.674Z,6.90
2019-03-21T20:12:53.250Z,8.90
2019-03-21T20:15:24.039Z,6.90
2019-03-21T20:17:53.590Z,6.80
2019-03-21T20:20:22.951Z,6.80
2019-03-21T20:22:52.518Z,6.90
2019-03-21T20:25:21.956Z,6.90
2019-03-21T20:27:51.485Z,6.90
2019-03-21T20:30:20.927Z,6.90
2019-03-21T20:32:50.418Z,6.90
2019-03-21T20:35:20.851Z,6.90
2019-03-21T20:37:50.348Z,6.80
2019-03-21T20:40:20.002Z,6.80
2019-03-21T20:42:49.594Z,6.70
2019-03-21T20:45:19.978Z,6.60
2019-03-21T20:47:49.984Z,6.60
2019-03-21T20:50:19.458Z,6.50
2019-03-21T20:52:49.032Z,6.40
2019-03-21T20:55:18.552Z,6.50
2019-03-21T20:57:47.975Z,6.50
2019-03-21T21:00:18.551Z,6.70
2019-03-21T21:02:48.043Z,6.50
2019-03-21T21:05:17.622Z,6.50
2019-03-21T21:07:47.130Z,6.50
2019-03-21T21:10:16.675Z,6.40
2019-03-21T21:12:46.243Z,6.30
2019-03-21T21:15:15.858Z,6.50
2019-03-21T21:17:47.500Z,6.50
2019-03-21T21:20:16.920Z,6.60
2019-03-21T21:22:46.334Z,6.50
2019-03-21T21:25:15.796Z,6.50
2019-03-21T21:27:49.738Z,6.60
2019-03-21T21:30:17.532Z,6.40
2019-03-21T21:32:46.899Z,6.30
2019-03-21T21:35:16.252Z,6.00
2019-03-21T21:37:45.632Z,5.90
2019-03-21T21:40:15.434Z,5.90
2019-03-21T21:42:45.153Z,6.00
2019-03-21T21:45:14.584Z,6.20
2019-03-21T21:47:43.946Z,6.30
2019-03-21T21:50:13.489Z,6.00
2019-03-21T21:52:42.891Z,5.80
2019-03-21T21:55:12.334Z,5.60
2019-03-21T21:57:41.821Z,5.50
2019-03-21T22:00:12.908Z,5.50
2019-03-21T22:02:42.474Z,5.50
2019-03-21T22:05:11.931Z,5.50
2019-03-21T22:07:41.368Z,5.50
2019-03-21T22:10:11.005Z,5.50
2019-03-21T22:12:40.419Z,5.50
2019-03-21T22:15:10.317Z,5.50
2019-03-21T22:17:39.788Z,5.40
2019-03-21T22:20:09.697Z,5.30
2019-03-21T22:22:39.141Z,5.00
2019-03-21T22:25:08.894Z,4.90
2019-03-21T22:27:38.321Z,4.90
2019-03-21T22:30:10.182Z,4.80
2019-03-21T22:32:40.300Z,4.80
2019-03-21T22:35:09.925Z,4.90
2019-03-21T22:37:39.561Z,4.70
2019-03-21T22:40:09.371Z,4.80
2019-03-21T22:42:38.892Z,4.80
2019-03-21T22:45:08.889Z,4.80
2019-03-21T22:47:38.306Z,4.80
2019-03-21T22:50:10.478Z,4.70
2019-03-21T22:52:39.887Z,4.70
2019-03-21T22:55:09.410Z,4.60
2019-03-21T22:57:39.044Z,4.60
2019-03-21T23:00:09.707Z,4.60
2019-03-21T23:02:39.392Z,4.50
2019-03-21T23:05:10.946Z,4.40
2019-03-21T23:07:40.470Z,4.30
2019-03-21T23:10:09.929Z,4.10
2019-03-21T23:12:39.354Z,4.20
2019-03-21T23:15:09.085Z,4.20
2019-03-21T23:17:38.764Z,4.10
2019-03-21T23:20:08.574Z,4.20
2019-03-21T23:22:38.028Z,4.10
2019-03-21T23:25:07.845Z,4.10
2019-03-21T23:27:37.379Z,4.20
2019-03-21T23:30:12.167Z,4.10
2019-03-21T23:32:41.756Z,4.20
2019-03-21T23:35:11.218Z,4.10
2019-03-21T23:37:40.719Z,4.10
2019-03-21T23:40:10.230Z,4.10
2019-03-21T23:42:40.534Z,4.10
2019-03-21T23:45:10.541Z,4.20
2019-03-21T23:47:40.030Z,4.30
2019-03-21T23:50:09.745Z,4.20
2019-03-21T23:52:39.273Z,4.40
2019-03-21T23:55:08.821Z,4.60
2019-03-21T23:57:38.258Z,4.70
